Time;durP1;ratioP1;P1;durP2;ratioP2;P2;SDS_P1;SDS_P2;PMS_P1;PMS_P2;Temp;Humidity;BMP_temperature;BMP_pressure;BME280_temperature;BME280_humidity;BME280_pressure;Samples;Min_cycle;Max_cycle;Signal;HPM_P1;HPM_P2
2022/05/20 00:00:52;;;;;;;3.25;3.15;;;16.60;99.90;;;16.98;81.60;102084.53;4862520;29;20046;-67
2022/05/20 00:03:20;;;;;;;3.30;3.20;;;16.70;99.90;;;16.91;81.17;102090.88;4862167;29;20551;-67
2022/05/20 00:05:49;;;;;;;3.10;3.00;;;16.60;99.90;;;16.87;80.98;102094.47;4860823;29;20077;-67
2022/05/20 00:08:17;;;;;;;2.83;2.72;;;16.60;99.90;;;16.90;82.06;102096.19;4862005;29;20057;-67
2022/05/20 00:10:46;;;;;;;3.00;2.90;;;16.50;99.90;;;16.55;82.38;102031.56;4861044;29;20113;-67
2022/05/20 00:13:14;;;;;;;3.13;3.03;;;16.60;99.90;;;16.93;82.11;102094.41;4860999;29;20420;-67
2022/05/20 00:15:44;;;;;;;2.80;2.70;;;16.60;99.90;;;16.72;82.51;102067.91;4862078;29;20132;-68
2022/05/20 00:18:12;;;;;;;2.80;2.70;;;16.50;99.90;;;16.85;81.59;102092.69;4861684;29;20073;-68
2022/05/20 00:20:41;;;;;;;3.20;3.10;;;16.50;99.90;;;16.70;80.34;102083.06;4861833;29;20133;-67
2022/05/20 00:23:10;;;;;;;3.00;2.90;;;16.40;99.90;;;16.63;80.65;102094.69;4862089;29;20511;-67
2022/05/20 00:25:47;;;;;;;3.10;3.00;;;16.30;99.90;;;16.30;81.57;102089.63;4861888;29;20071;-67
2022/05/20 00:28:20;;;;;;;3.35;3.25;;;16.00;99.90;;;16.40;82.04;102075.28;4861983;29;20046;-67
2022/05/20 00:30:55;;;;;;;3.00;2.90;;;16.00;99.90;;;16.47;82.03;102081.47;4861963;29;20041;-68
2022/05/20 00:33:26;;;;;;;3.30;3.20;;;16.10;99.90;;;16.40;82.64;102059.28;4861702;29;20524;-68
2022/05/20 00:35:56;;;;;;;3.00;2.90;;;16.20;99.90;;;16.60;83.00;102085.84;4861897;29;20049;-67
2022/05/20 00:38:26;;;;;;;3.00;2.90;;;16.20;99.90;;;16.63;83.00;102083.13;4861773;29;20054;-68
2022/05/20 00:40:57;;;;;;;2.80;2.70;;;16.30;99.90;;;16.80;82.76;102082.06;4861853;29;20057;-68
2022/05/20 00:43:36;;;;;;;3.38;3.28;;;16.50;99.90;;;16.96;82.40;102074.75;4861776;29;20429;-67
2022/05/20 00:46:08;;;;;;;3.13;3.03;;;16.60;99.90;;;16.43;81.85;101992.50;4861383;29;20045;-67
2022/05/20 00:48:38;;;;;;;3.00;2.90;;;16.60;99.90;;;16.84;80.98;102086.47;4860671;29;20128;-67
2022/05/20 00:51:10;;;;;;;2.72;2.63;;;16.60;99.90;;;16.69;80.49;102086.63;4861303;29;20046;-67
2022/05/20 00:53:44;;;;;;;3.33;3.17;;;16.40;99.90;;;16.37;81.75;102083.34;4861298;29;20102;-67
2022/05/20 00:56:18;;;;;;;3.08;2.97;;;16.10;99.90;;;16.11;82.60;102080.88;4861532;29;20384;-67
2022/05/20 00:58:47;;;;;;;3.30;3.20;;;15.80;99.90;;;16.08;84.08;102080.94;4861266;29;20045;-68
2022/05/20 01:01:17;;;;;;;2.90;2.80;;;15.70;99.90;;;16.15;84.76;102073.72;4860176;29;20053;-67
2022/05/20 01:03:47;;;;;;;3.45;3.35;;;15.70;99.90;;;16.24;84.75;102074.53;4861437;29;20468;-67
2022/05/20 01:06:16;;;;;;;3.15;3.05;;;15.80;99.90;;;16.20;84.66;102079.94;4861462;29;20097;-67
2022/05/20 01:08:44;;;;;;;2.90;2.80;;;15.80;99.90;;;16.20;84.24;102067.44;4861201;29;20057;-67
2022/05/20 01:11:13;;;;;;;3.00;2.90;;;15.80;99.90;;;16.24;84.63;102066.53;4861052;29;20129;-67
2022/05/20 01:13:44;;;;;;;4.88;4.65;;;15.90;99.90;;;16.37;84.99;102056.66;4860939;29;20069;-67
2022/05/20 01:16:13;;;;;;;3.08;2.97;;;16.00;99.90;;;16.42;84.97;102040.56;4861001;29;20056;-68
2022/05/20 01:18:46;;;;;;;3.30;3.20;;;16.00;99.90;;;16.50;85.09;102028.06;4861224;29;20142;-67
2022/05/20 01:21:15;;;;;;;3.53;3.40;;;16.10;99.90;;;16.01;84.28;101945.72;4875485;29;20081;-67
2022/05/20 01:23:45;;;;;;;3.08;2.97;;;16.20;99.90;;;16.62;83.94;102036.84;4860902;29;20500;-67
2022/05/20 01:26:13;;;;;;;3.15;3.05;;;16.30;99.90;;;16.57;83.50;102008.41;4860790;29;20052;-67
2022/05/20 01:28:42;;;;;;;3.40;3.30;;;16.40;99.90;;;16.02;83.25;101894.13;4860720;29;20041;-67
2022/05/20 01:31:14;;;;;;;3.45;3.35;;;16.50;99.90;;;16.68;83.05;102002.03;4860828;29;20076;-68
2022/05/20 01:33:46;;;;;;;3.30;3.20;;;16.50;99.90;;;16.89;82.87;102017.81;4860835;29;20061;-67
2022/05/20 01:36:19;;;;;;;2.95;2.85;;;16.60;99.90;;;16.83;82.68;102025.91;4860814;29;20049;-68
2022/05/20 01:38:52;;;;;;;4.28;4.07;;;16.60;99.90;;;16.84;82.80;102025.00;4861282;29;20046;-67
2022/05/20 01:41:28;;;;;;;3.72;3.58;;;16.50;99.90;;;16.78;82.44;102017.03;4859697;29;20061;-67
2022/05/20 01:44:08;;;;;;;3.78;3.58;;;16.60;99.90;;;16.99;82.22;102023.94;4861289;29;20555;-67
2022/05/20 01:46:42;;;;;;;3.47;3.38;;;16.70;99.90;;;16.79;82.63;102026.84;4860941;29;20049;-67
2022/05/20 01:49:25;;;;;;;2.90;2.80;;;16.50;99.90;;;16.82;83.17;102009.91;4860734;29;20056;-67
2022/05/20 01:52:01;;;;;;;3.10;3.00;;;16.60;99.90;;;16.82;83.21;102023.25;4861012;29;20050;-67
2022/05/20 01:54:41;;;;;;;3.30;3.20;;;16.50;99.90;;;16.88;83.55;102016.03;4860725;29;20046;-67
2022/05/20 01:57:19;;;;;;;3.13;3.03;;;16.50;99.90;;;16.97;83.46;102015.94;4860968;29;20049;-67
2022/05/20 01:59:52;;;;;;;2.80;2.70;;;16.60;99.90;;;16.91;83.49;102020.47;4860977;29;20282;-67
2022/05/20 02:02:29;;;;;;;3.10;3.00;;;16.60;99.90;;;16.80;83.17;102017.06;4860611;29;20049;-67
2022/05/20 02:05:04;;;;;;;3.05;2.95;;;16.60;99.90;;;16.77;83.52;102015.28;4859627;29;20056;-67
2022/05/20 02:07:36;;;;;;;3.15;3.05;;;16.50;99.90;;;16.84;83.36;102022.31;4860478;29;20080;-67
2022/05/20 02:10:13;;;;;;;3.20;3.10;;;16.50;99.90;;;17.05;83.56;102023.88;4860969;29;20057;-67
2022/05/20 02:12:48;;;;;;;2.88;2.78;;;16.70;99.90;;;17.11;82.95;102008.63;4859574;29;20053;-67
2022/05/20 02:15:20;;;;;;;5.28;4.88;;;16.80;99.90;;;17.11;82.70;102010.44;4860487;29;20050;-67
2022/05/20 02:17:54;;;;;;;2.95;2.85;;;16.80;99.90;;;17.10;82.46;102008.63;4860436;29;20090;-67
2022/05/20 02:20:29;;;;;;;3.00;2.90;;;16.80;99.90;;;17.06;82.68;102009.59;4860993;29;20050;-67
2022/05/20 02:23:03;;;;;;;3.00;2.90;;;16.80;99.90;;;17.05;82.83;102032.75;4860362;29;20045;-67
2022/05/20 02:25:39;;;;;;;3.42;3.33;;;16.80;99.90;;;17.05;82.89;102014.03;4860739;29;20050;-67
2022/05/20 02:28:14;;;;;;;2.88;2.78;;;16.80;99.90;;;17.12;82.79;102002.38;4860299;29;20046;-67
2022/05/20 02:30:44;;;;;;;3.28;3.17;;;16.80;99.90;;;17.20;82.50;102002.28;4860333;29;20098;-67
2022/05/20 02:33:17;;;;;;;3.33;3.22;;;16.90;99.90;;;17.13;82.07;102001.47;4860326;29;20045;-67
2022/05/20 02:35:46;;;;;;;2.80;2.70;;;16.90;99.90;;;17.21;82.35;101995.16;4859300;29;20109;-67
2022/05/20 02:38:20;;;;;;;3.05;2.95;;;16.90;99.90;;;17.07;82.20;101980.16;4860816;29;20054;-67
2022/05/20 02:40:52;;;;;;;3.03;2.92;;;16.90;99.90;;;16.96;81.99;101979.41;4860802;29;20073;-67
2022/05/20 02:43:22;;;;;;;4.75;4.47;;;16.80;99.90;;;16.85;83.49;102005.41;4863914;29;20046;-68
2022/05/20 02:45:52;;;;;;;4.68;4.40;;;16.60;99.90;;;16.57;84.10;101997.72;4863545;29;20041;-68
2022/05/20 02:48:24;;;;;;;3.33;3.22;;;16.40;99.90;;;16.13;83.83;101880.66;4863575;29;20049;-68
2022/05/20 02:50:53;;;;;;;3.25;3.15;;;16.50;99.90;;;16.67;82.93;102010.94;4863523;29;20049;-67
2022/05/20 02:53:21;;;;;;;3.40;3.30;;;16.40;99.90;;;16.47;82.92;102006.69;4863397;29;20120;-67
2022/05/20 02:55:51;;;;;;;2.80;2.70;;;16.30;99.90;;;16.64;82.60;102023.47;4863607;29;20045;-67
2022/05/20 03:04:12;;;;;;;;;;;16.20;99.90;;;16.61;83.77;102024.38;4863694;29;20055;-67
2022/05/20 03:06:43;;;;;;;2.92;2.83;;;16.30;99.90;;;16.48;83.59;102030.75;4863095;29;20339;-67
2022/05/20 03:09:13;;;;;;;3.10;3.00;;;16.20;99.90;;;16.45;83.92;101998.69;4863130;29;20057;-67
2022/05/20 03:11:44;;;;;;;3.92;3.72;;;16.20;99.90;;;16.56;84.08;102009.28;4863220;29;20070;-67
2022/05/20 03:14:15;;;;;;;3.30;3.20;;;16.20;99.90;;;16.57;84.09;102019.94;4863110;29;20045;-67
2022/05/20 03:16:44;;;;;;;3.10;3.00;;;16.20;99.90;;;16.46;84.49;102000.44;4863559;29;20124;-68
2022/05/20 03:19:13;;;;;;;3.20;3.10;;;16.20;99.90;;;16.50;84.97;102010.25;4863215;29;20052;-68
2022/05/20 03:21:42;;;;;;;3.20;3.10;;;16.20;99.90;;;16.48;85.37;102020.06;4862912;29;20041;-68
2022/05/20 03:24:12;;;;;;;3.60;3.50;;;16.10;99.90;;;16.70;85.34;102000.25;4861787;29;20623;-68
2022/05/20 03:26:43;;;;;;;3.28;3.17;;;16.30;99.90;;;16.79;84.92;102000.13;4862753;29;20416;-67
2022/05/20 03:29:11;;;;;;;2.80;2.70;;;16.40;99.90;;;16.78;84.94;101998.34;4861929;29;20552;-67
2022/05/20 03:31:41;;;;;;;2.72;2.63;;;16.40;99.90;;;16.94;84.95;101988.34;4862978;29;20065;-67
2022/05/20 03:34:10;;;;;;;4.28;4.07;;;16.60;99.90;;;17.01;84.60;101990.06;4861917;29;20403;-67
2022/05/20 03:36:40;;;;;;;3.08;2.97;;;16.70;99.90;;;17.02;84.42;101978.44;4862852;29;20102;-68
2022/05/20 03:39:11;;;;;;;3.40;3.30;;;16.70;99.90;;;16.95;84.34;101980.31;4863237;29;20057;-67
2022/05/20 03:41:40;;;;;;;3.40;3.30;;;16.70;99.90;;;16.95;84.30;101979.44;4862625;29;20045;-68
2022/05/20 03:44:12;;;;;;;4.18;3.97;;;16.70;99.90;;;16.90;84.26;101979.47;4861585;29;20460;-67
2022/05/20 03:46:42;;;;;;;3.20;3.10;;;16.70;99.90;;;16.93;84.29;101976.78;4862474;29;20045;-67
2022/05/20 03:49:11;;;;;;;2.90;2.80;;;16.70;99.90;;;16.92;84.27;101958.97;4862467;29;20483;-68
2022/05/20 03:51:41;;;;;;;4.15;3.83;;;16.70;99.90;;;16.96;84.18;101951.78;4862397;29;20407;-68
2022/05/20 03:54:10;;;;;;;3.90;3.70;;;16.80;99.90;;;16.99;83.90;101944.59;4860331;29;20057;-68
2022/05/20 03:56:40;;;;;;;2.85;2.75;;;16.80;99.90;;;17.08;83.91;101955.19;4862531;29;20075;-68
2022/05/20 03:59:11;;;;;;;2.85;2.75;;;16.80;99.90;;;17.02;83.89;101936.56;4862673;29;20042;-68
2022/05/20 04:01:57;;;;;;;20.23;4.50;;;16.90;99.90;;;17.18;83.58;101942.56;4862108;29;20041;-67
2022/05/20 04:04:30;;;;;;;3.50;3.40;;;16.90;99.90;;;17.21;83.69;101957.72;4862486;29;20041;-68
2022/05/20 04:06:59;;;;;;;4.82;4.60;;;16.90;99.90;;;16.94;83.66;101964.28;4862070;29;20098;-67
2022/05/20 04:09:28;;;;;;;3.70;3.40;;;16.70;99.90;;;16.52;85.23;101972.81;4860871;29;20482;-67
2022/05/20 04:11:59;;;;;;;3.72;3.53;;;16.40;99.90;;;16.10;87.81;101958.09;4862009;29;20049;-67
2022/05/20 04:14:32;;;;;;;2.80;2.70;;;16.00;99.90;;;15.93;89.44;101958.25;4861993;29;20045;-67
2022/05/20 04:17:03;;;;;;;3.60;3.47;;;15.70;99.90;;;16.27;89.17;101990.88;4862514;29;20106;-67
2022/05/20 04:19:33;;;;;;;3.13;3.03;;;15.80;99.90;;;16.31;88.79;101989.94;4862330;29;20136;-68
2022/05/20 04:22:07;;;;;;;3.30;3.20;;;15.90;99.90;;;16.20;88.72;101983.81;4861798;29;20054;-68
2022/05/20 04:24:36;;;;;;;3.83;3.63;;;15.90;99.90;;;15.89;89.04;101974.31;4861843;29;20046;-67
2022/05/20 04:27:06;;;;;;;3.90;3.70;;;15.60;99.90;;;15.59;89.81;101942.53;4861685;29;20105;-67
2022/05/20 04:29:36;;;;;;;2.88;2.78;;;15.50;99.90;;;15.72;91.15;101974.44;4861762;29;20045;-67
2022/05/20 04:32:05;;;;;;;3.22;3.13;;;15.40;99.90;;;15.77;91.32;101972.63;4861879;29;20094;-67
2022/05/20 04:34:34;;;;;;;3.28;3.17;;;15.40;99.90;;;15.82;91.32;101973.47;4860734;29;20452;-67
2022/05/20 04:37:02;;;;;;;3.65;3.53;;;15.50;99.90;;;15.90;90.38;101982.31;4861809;29;20041;-67
2022/05/20 04:39:31;;;;;;;3.50;3.40;;;15.50;99.90;;;15.69;91.16;101974.47;4861767;29;20046;-67
2022/05/20 04:47:34;;;;;;;3.15;3.05;;;15.40;99.90;;;16.05;91.87;101989.28;4860475;29;20049;-67
2022/05/20 04:50:04;;;;;;;3.28;3.17;;;15.60;99.90;;;16.11;91.21;101984.78;4861677;29;20046;-67
2022/05/20 04:52:33;;;;;;;4.05;3.85;;;15.70;99.90;;;15.97;90.73;101988.44;4861604;29;20053;-68
2022/05/20 04:55:00;;;;;;;3.22;3.13;;;15.70;99.90;;;15.83;91.00;101988.56;4861523;29;20045;-67
2022/05/20 04:57:32;;;;;;;3.72;3.58;;;15.60;99.90;;;15.69;91.63;101979.81;4861212;29;20120;-67
2022/05/20 05:00:10;;;;;;;3.78;3.58;;;15.50;99.90;;;15.36;93.08;101951.56;4860267;29;20057;-67
2022/05/20 05:02:39;;;;;;;4.60;4.30;;;15.30;99.90;;;15.51;93.43;101992.38;4861305;29;20061;-67
2022/05/20 05:05:11;;;;;;;4.10;3.90;;;15.30;99.90;;;15.39;94.77;101990.63;4860647;29;20054;-68
2022/05/20 05:07:42;;;;;;;4.97;4.68;;;15.10;99.90;;;15.40;95.16;101997.75;4860080;29;20083;-67
2022/05/20 05:10:13;;;;;;;3.40;3.30;;;15.10;99.90;;;15.43;95.72;101987.09;4861554;29;20103;-67
2022/05/20 05:12:42;;;;;;;5.28;4.88;;;15.10;99.90;;;15.58;95.86;101996.78;4861339;29;20049;-67
2022/05/20 05:15:13;;;;;;;8.93;5.18;;;15.30;99.90;;;15.57;96.38;101995.00;4861449;29;20049;-67
2022/05/20 05:20:30;;;;;;;5.18;4.93;;;15.40;99.90;;;15.70;96.41;101994.03;4860935;29;20457;-67
2022/05/20 05:22:59;;;;;;;3.42;3.33;;;15.40;99.90;;;15.91;96.69;101999.22;4859715;29;20081;-67
2022/05/20 05:25:34;;;;;;;3.70;3.55;;;15.60;99.90;;;15.95;97.15;102001.81;4861093;29;20061;-67
2022/05/20 05:28:03;;;;;;;4.80;4.50;;;15.70;99.90;;;16.23;96.94;101998.03;4861117;29;20060;-67
2022/05/20 05:30:34;;;;;;;4.40;4.20;;;15.90;99.90;;;16.11;96.30;101978.53;4860796;29;20049;-67
2022/05/20 05:33:03;;;;;;;4.63;4.40;;;16.00;99.90;;;16.35;95.69;101981.00;4860877;29;20049;-67
2022/05/20 05:35:33;;;;;;;4.38;4.15;;;16.00;99.90;;;16.40;95.54;101979.16;4861067;29;20532;-67
2022/05/20 05:38:01;;;;;;;4.63;4.18;;;16.10;99.90;;;16.53;95.06;101978.13;4861044;29;20446;-68
2022/05/20 05:40:33;;;;;;;17.23;6.60;;;16.20;99.90;;;16.53;95.27;101975.47;4861242;29;20045;-67
2022/05/20 05:43:02;;;;;;;17.15;10.63;;;16.20;99.90;;;16.17;94.81;101958.03;4861005;29;20053;-67
2022/05/20 05:45:34;;;;;;;10.60;6.30;;;16.00;99.90;;;16.17;96.10;101975.81;4860660;29;20121;-67
2022/05/20 05:48:05;;;;;;;5.88;5.57;;;15.90;99.90;;;16.36;96.02;101974.75;4859995;29;20053;-67
2022/05/20 05:50:38;;;;;;;4.88;4.60;;;16.00;99.90;;;16.54;95.95;101971.91;4859710;29;20492;-67
2022/05/20 05:53:11;;;;;;;6.22;5.78;;;16.20;99.90;;;16.30;95.77;101957.91;4860935;29;20459;-67
2022/05/20 05:55:40;;;;;;;3.42;3.33;;;16.10;99.90;;;16.39;95.83;101936.44;4861166;29;20440;-67
2022/05/20 05:58:09;;;;;;;6.10;5.77;;;16.10;99.90;;;16.83;94.83;101963.53;4861163;29;20080;-67
2022/05/20 06:00:39;;;;;;;6.13;5.68;;;16.50;99.90;;;17.03;93.42;101974.88;4860851;29;20148;-68
2022/05/20 06:03:08;;;;;;;4.95;4.70;;;16.70;99.90;;;16.97;93.39;101951.78;4860905;29;20076;-67
2022/05/20 06:05:37;;;;;;;6.22;5.82;;;16.80;99.90;;;16.93;93.82;101971.44;4860774;29;20362;-68
2022/05/20 06:08:06;;;;;;;20.30;9.77;;;16.70;99.90;;;17.12;95.49;101977.41;4860019;29;20129;-68
2022/05/20 06:10:35;;;;;;;16.27;8.98;;;16.70;99.90;;;16.66;92.71;101933.47;4860784;29;20467;-67
2022/05/20 06:13:03;;;;;;;11.05;7.53;;;16.60;99.90;;;16.48;92.74;101963.97;4860671;29;20068;-67
2022/05/20 06:15:32;;;;;;;6.47;5.40;;;16.30;99.90;;;16.86;93.75;101960.84;4860732;29;20128;-66
2022/05/20 06:18:01;;;;;;;23.13;10.88;;;16.40;99.90;;;16.40;92.29;101965.78;4863879;29;20053;-67
2022/05/20 06:20:30;;;;;;;10.30;7.03;;;16.20;99.90;;;16.54;92.87;101961.22;4863044;29;20148;-67
2022/05/20 06:23:01;;;;;;;33.50;9.93;;;16.20;99.90;;;16.15;93.11;101951.81;4863908;29;20119;-66
2022/05/20 06:25:30;;;;;;;10.20;9.18;;;15.90;99.90;;;16.14;92.72;101970.53;4864164;29;20403;-67
2022/05/20 06:28:07;;;;;;;10.27;8.85;;;15.80;99.90;;;16.21;92.54;101967.78;4863749;29;20129;-65
2022/05/20 06:30:36;;;;;;;7.32;6.72;;;15.90;99.90;;;16.45;94.13;101958.63;4863998;29;20101;-64
2022/05/20 06:33:07;;;;;;;10.52;5.93;;;16.10;99.90;;;16.62;93.52;101970.03;4863639;29;20500;-64
2022/05/20 06:41:08;;;;;;;5.50;5.07;;;16.50;99.90;;;16.90;91.70;101952.75;4863955;29;20045;-65
2022/05/20 06:43:38;;;;;;;4.00;3.80;;;16.60;99.90;;;17.02;91.50;101960.63;4863810;29;20073;-64
2022/05/20 06:46:06;;;;;;;4.32;4.13;;;16.70;99.90;;;17.12;90.35;101962.28;4863467;29;20098;-66
2022/05/20 06:48:53;;;;;;;5.43;5.13;;;16.80;99.90;;;17.17;89.47;101955.06;4863656;29;20054;-65
2022/05/20 06:51:24;;;;;;;4.32;4.13;;;16.90;99.90;;;16.43;88.87;101850.94;4878038;29;20053;-64
2022/05/20 06:53:54;;;;;;;3.50;3.35;;;16.70;99.90;;;17.03;88.42;101940.97;4863694;29;20041;-64
2022/05/20 06:56:25;;;;;;;9.63;8.30;;;16.80;99.90;;;16.70;87.69;101914.72;4863181;29;20045;-65
2022/05/20 06:58:53;;;;;;;19.75;10.18;;;16.60;99.90;;;16.89;87.13;101940.31;4863302;29;20565;-65
2022/05/20 07:01:22;;;;;;;3.90;3.70;;;16.60;99.90;;;17.10;85.08;101941.78;4863246;29;20147;-64
2022/05/20 07:03:53;;;;;;;7.05;6.40;;;16.70;99.90;;;17.08;84.96;101943.59;4862117;29;20503;-66
2022/05/20 07:06:23;;;;;;;12.30;8.20;;;16.80;99.90;;;17.29;85.35;101953.09;4863384;29;20065;-66
2022/05/20 07:08:52;;;;;;;11.13;9.18;;;16.90;99.90;;;17.19;83.39;101938.13;4863140;29;20053;-65
2022/05/20 07:11:22;;;;;;;11.68;7.57;;;16.90;99.90;;;17.04;82.43;101934.75;4862085;29;20492;-65
2022/05/20 07:13:55;;;;;;;13.52;7.65;;;16.80;99.90;;;17.26;83.18;101932.66;4863343;29;20106;-63
2022/05/20 07:16:25;;;;;;;5.03;4.80;;;16.90;99.90;;;17.28;82.41;101924.59;4863136;29;20045;-64
2022/05/20 07:18:56;;;;;;;8.27;5.25;;;16.90;99.90;;;17.42;82.17;101933.31;4863221;29;20057;-63
2022/05/20 07:21:25;;;;;;;6.53;5.38;;;17.10;99.90;;;17.38;81.85;101921.75;4863153;29;20049;-65
2022/05/20 07:23:53;;;;;;;6.15;5.65;;;17.10;99.90;;;17.60;81.51;101917.88;4862795;29;20173;-66
2022/05/20 07:26:21;;;;;;;7.80;5.68;;;17.20;99.90;;;17.50;80.49;101910.03;4861761;29;20499;-65
2022/05/20 07:28:52;;;;;;;7.15;5.72;;;17.20;99.90;;;17.58;82.26;101889.38;4861577;29;20054;-64
2022/05/20 07:31:23;;;;;;;5.57;5.05;;;17.30;99.90;;;17.71;80.99;101896.31;4862965;29;20101;-68
2022/05/20 07:33:52;;;;;;;9.23;6.63;;;17.30;99.90;;;17.95;82.63;101888.69;4863243;29;20041;-62
2022/05/20 07:36:23;;;;;;;41.58;26.05;;;17.60;99.90;;;18.14;81.20;101878.50;4863337;29;20440;-63
2022/05/20 07:38:52;;;;;;;32.80;24.92;;;17.80;99.90;;;18.27;80.21;101864.00;4862967;29;20084;-63
2022/05/20 07:41:23;;;;;;;34.63;23.20;;;18.00;99.90;;;18.24;80.11;101863.16;4862786;29;20132;-63
2022/05/20 07:43:51;;;;;;;26.77;21.30;;;17.90;99.90;;;18.33;77.84;101873.69;4862351;29;20113;-62
2022/05/20 07:46:20;;;;;;;25.55;21.38;;;18.10;99.90;;;18.35;77.74;101878.09;4862651;29;20128;-68
2022/05/20 07:48:48;;;;;;;28.48;21.27;;;18.10;99.90;;;18.11;77.82;101880.38;4862325;29;20508;-69
2022/05/20 07:51:22;;;;;;;31.40;21.98;;;17.90;99.90;;;18.08;77.59;101880.44;4862408;29;20500;-69
2022/05/20 07:53:56;;;;;;;25.60;19.58;;;17.80;99.90;;;18.27;77.75;101876.50;4862911;29;20105;-68
2022/05/20 07:56:28;;;;;;;22.55;17.30;;;17.90;99.90;;;18.22;76.18;101873.91;4862245;29;20049;-69
2022/05/20 07:59:00;;;;;;;25.33;17.55;;;17.90;99.90;;;17.88;75.23;101867.44;4862319;29;20072;-68
2022/05/20 08:01:32;;;;;;;23.65;16.73;;;17.70;99.90;;;18.12;76.66;101864.28;4861231;29;20089;-68
2022/05/20 08:06:53;;;;;;;18.52;14.85;;;18.00;99.90;;;18.47;74.50;101856.44;4862085;29;20084;-68
2022/05/20 08:09:26;;;;;;;26.48;15.32;;;18.10;99.90;;;18.22;75.14;101852.47;4861840;29;20457;-68
2022/05/20 08:11:55;;;;;;;21.88;14.82;;;18.00;99.90;;;17.97;73.38;101861.91;4862559;29;20133;-68
2022/05/20 08:14:23;;;;;;;21.83;14.18;;;17.80;99.90;;;17.99;74.17;101860.06;4862003;29;20271;-68
2022/05/20 08:16:52;;;;;;;19.42;13.07;;;17.70;99.90;;;18.16;74.94;101857.06;4861852;29;20517;-69
2022/05/20 08:19:20;;;;;;;18.02;13.27;;;17.80;99.90;;;18.22;73.82;101852.47;4861767;29;20045;-69
2022/05/20 08:21:48;;;;;;;25.33;12.52;;;17.90;99.90;;;18.34;72.99;101843.31;4861865;29;20077;-68
2022/05/20 08:24:18;;;;;;;15.68;11.30;;;18.00;99.90;;;18.31;73.13;101848.75;4862073;29;20077;-68
2022/05/20 08:26:47;;;;;;;18.80;11.88;;;18.00;99.90;;;18.30;73.62;101837.13;4860652;29;20056;-69
2022/05/20 08:29:16;;;;;;;18.67;13.35;;;18.00;99.90;;;18.31;74.25;101828.16;4861721;29;20053;-68
2022/05/20 08:31:45;;;;;;;23.13;12.55;;;18.10;99.90;;;18.22;73.50;101823.00;4861966;29;20045;-68
2022/05/20 08:34:14;;;;;;;17.60;12.18;;;18.00;99.90;;;18.24;73.45;101782.78;4861602;29;20042;-69
2022/05/20 08:36:43;;;;;;;15.57;11.25;;;18.10;99.90;;;18.28;73.32;101790.75;4861233;29;20101;-68
2022/05/20 08:39:12;;;;;;;15.15;10.50;;;18.00;99.90;;;18.18;71.48;101767.75;4859956;29;20148;-68
2022/05/20 08:41:46;;;;;;;16.67;10.65;;;18.00;99.90;;;18.29;72.59;101760.34;4861380;29;20080;-68
2022/05/20 08:44:22;;;;;;;15.77;10.23;;;18.10;99.90;;;17.92;71.39;101701.34;4860373;29;20057;-68
2022/05/20 08:46:50;;;;;;;14.13;10.90;;;18.10;99.90;;;18.37;72.59;101761.06;4860567;29;20408;-68
2022/05/20 08:49:22;;;;;;;22.52;11.05;;;18.10;99.90;;;18.30;71.99;101731.75;4861537;29;20046;-68
2022/05/20 08:51:54;;;;;;;18.00;12.00;;;18.10;99.90;;;18.42;72.04;101753.84;4861436;29;20057;-68
2022/05/20 08:54:22;;;;;;;21.33;13.80;;;18.20;99.90;;;18.53;73.68;101767.88;4861151;29;20045;-68
2022/05/20 08:56:52;;;;;;;17.85;12.27;;;18.20;99.90;;;18.54;72.81;101769.63;4860126;29;20061;-68
2022/05/20 08:59:23;;;;;;;18.52;11.85;;;18.20;99.90;;;18.63;70.90;101750.69;4861123;29;20073;-69
2022/05/20 09:01:53;;;;;;;;;;;18.40;99.90;;;18.85;71.36;101751.06;4861544;29;20049;-68
2022/05/20 09:04:24;;;;;;;15.82;11.98;;;18.50;99.90;;;18.69;70.37;101765.75;4860949;29;19924;-68
2022/05/20 09:07:01;;;;;;;21.23;11.27;;;18.50;99.90;;;19.10;70.34;101759.38;4861342;29;20093;-68
2022/05/20 09:09:44;;;;;;;18.40;11.25;;;18.70;99.90;;;19.13;69.67;101759.28;4859532;29;20607;-69
2022/05/20 09:12:32;;;;;;;13.25;10.48;;;18.80;99.90;;;18.92;67.89;101742.81;4859970;29;20105;-69
2022/05/20 09:18:06;;;;;;;15.82;10.30;;;18.80;99.90;;;19.02;69.88;101737.22;4861176;29;20058;-68
2022/05/20 09:20:42;;;;;;;13.30;9.43;;;18.80;99.90;;;18.80;67.15;101742.22;4860903;29;20411;-69
2022/05/20 09:23:15;;;;;;;16.25;10.15;;;18.60;99.90;;;19.00;69.71;101741.75;4860965;29;20121;-68
2022/05/20 09:25:58;;;;;;;15.82;9.73;;;18.60;99.90;;;19.23;68.14;101732.19;4861173;29;20146;-68
2022/05/20 09:28:36;;;;;;;13.63;9.20;;;18.90;99.90;;;19.15;70.10;101723.47;4861088;29;20053;-68
2022/05/20 09:31:14;;;;;;;16.33;9.48;;;18.90;99.90;;;19.19;69.03;101705.47;4860804;29;20074;-68
2022/05/20 09:33:53;;;;;;;11.10;8.45;;;18.90;99.90;;;19.06;66.46;101701.38;4860719;29;20072;-69
2022/05/20 09:36:39;;;;;;;15.68;8.75;;;18.80;99.90;;;18.96;65.92;101694.47;4860708;29;20085;-68
2022/05/20 09:39:13;;;;;;;17.13;9.35;;;18.70;99.90;;;18.99;66.79;101689.03;4875255;29;20567;-69
2022/05/20 09:41:51;;;;;;;12.48;8.93;;;18.70;99.90;;;19.02;67.06;101686.28;4860586;29;20482;-68
2022/05/20 09:44:25;;;;;;;15.32;9.65;;;18.70;99.90;;;19.35;67.50;101674.69;4860874;29;20049;-68
2022/05/20 09:46:59;;;;;;;12.68;10.90;;;19.00;99.90;;;19.32;67.29;101653.25;4860876;29;20463;-68
2022/05/20 09:49:42;;;;;;;15.30;10.40;;;19.00;99.90;;;19.34;67.01;101655.00;4860872;29;20049;-68
2022/05/20 09:52:31;;;;;;;13.30;11.02;;;19.10;99.90;;;19.18;68.66;101639.34;4862981;29;20120;-68
2022/05/20 09:55:05;;;;;;;15.23;10.20;;;18.90;99.90;;;19.19;69.49;101623.22;4864455;29;20058;-69
2022/05/20 09:57:40;;;;;;;16.73;11.45;;;18.90;99.90;;;19.09;69.01;101636.91;4864283;29;20045;-69
2022/05/20 10:00:17;;;;;;;17.50;11.43;;;18.80;99.90;;;19.03;69.79;101629.91;4864208;29;20102;-68
2022/05/20 10:02:57;;;;;;;15.88;11.35;;;18.70;99.90;;;19.03;71.11;101621.84;4864078;29;20407;-68
2022/05/20 10:05:32;;;;;;;18.30;10.82;;;18.70;99.90;;;19.16;69.47;101614.38;4864385;29;20457;-68
2022/05/20 10:08:16;;;;;;;15.85;10.63;;;18.80;99.90;;;19.12;67.60;101610.00;4863241;29;20049;-68
2022/05/20 10:11:02;;;;;;;16.25;11.18;;;18.80;99.90;;;19.01;68.21;101588.84;4864119;29;20064;-68
2022/05/20 10:13:42;;;;;;;15.57;10.98;;;18.70;99.90;;;19.19;67.36;101576.72;4864016;29;20453;-68
2022/05/20 10:16:32;;;;;;;15.68;11.23;;;18.80;99.90;;;19.02;68.29;101558.44;4864358;29;20057;-68
2022/05/20 10:19:11;;;;;;;13.75;10.85;;;18.80;99.90;;;19.08;67.16;101541.28;4864262;29;20464;-68
2022/05/20 10:21:55;;;;;;;15.38;11.65;;;18.80;99.90;;;18.99;67.44;101534.38;4864283;29;20046;-67
2022/05/20 10:24:50;;;;;;;17.00;12.52;;;18.80;99.90;;;18.28;67.29;101394.31;4864002;29;20042;-67
2022/05/20 10:27:25;;;;;;;14.05;11.82;;;18.80;99.90;;;18.65;68.42;101470.09;4864137;29;20041;-68
2022/05/20 10:32:57;;;;;;;22.52;14.50;;;18.70;99.90;;;19.18;70.12;101495.34;4863925;29;20408;-68
2022/05/20 10:35:44;;;;;;;21.38;14.70;;;18.80;99.90;;;19.17;70.41;101480.19;4863714;29;20061;-67
2022/05/20 10:38:48;;;;;;;21.85;14.57;;;18.90;99.90;;;19.33;69.22;101486.91;4862624;29;20433;-67
2022/05/20 10:41:36;;;;;;;18.95;14.38;;;19.00;99.90;;;19.10;69.80;101477.75;4863878;29;20109;-67
2022/05/20 10:50:23;;;;;;;19.05;13.32;;;19.00;99.90;;;19.00;67.78;101455.69;4863639;29;20053;-67
2022/05/20 10:53:19;;;;;;;16.23;13.48;;;18.90;99.90;;;18.61;68.73;101355.00;4863768;29;20488;-67
2022/05/20 10:56:09;;;;;;;18.23;12.15;;;18.80;99.90;;;19.43;68.57;101441.88;4862388;29;20046;-67
2022/05/20 10:59:18;;;;;;;14.60;11.80;;;19.00;99.90;;;19.44;67.11;101446.31;4863828;29;20120;-66
2022/05/20 11:01:59;;;;;;;18.65;12.10;;;19.20;99.90;;;19.61;66.82;101430.53;4853005;29;20094;-67
2022/05/20 11:04:59;;;;;;;17.00;11.00;;;19.30;99.90;;;19.85;65.32;101440.50;4863503;29;20045;-67